Time;durP1;ratioP1;P1;durP2;ratioP2;P2;SDS_P1;SDS_P2;PMS_P1;PMS_P2;Temp;Humidity;BMP_temperature;BMP_pressure;BME280_temperature;BME280_humidity;BME280_pressure;Samples;Min_cycle;Max_cycle;Signal;HPM_P1;HPM_P2
2021/03/08 00:00:16;;;;;;;5.15;2.83;;;-1.10;99.90;;;;;;5050092;28;20047;-48
2021/03/08 00:02:42;;;;;;;7.45;2.60;;;-1.10;99.90;;;;;;5072057;28;20398;-52
2021/03/08 00:05:09;;;;;;;10.13;3.35;;;-1.10;99.90;;;;;;5071967;28;20025;-48
2021/03/08 00:07:35;;;;;;;11.40;3.25;;;-1.10;99.90;;;;;;5071976;28;20432;-50
2021/03/08 00:10:00;;;;;;;8.05;2.85;;;-1.10;99.90;;;;;;5072062;28;20024;-46
2021/03/08 00:12:26;;;;;;;6.68;2.28;;;-1.20;99.90;;;;;;5071916;28;20025;-49
2021/03/08 00:14:52;;;;;;;8.02;2.83;;;-1.20;99.90;;;;;;5072022;28;20079;-50
2021/03/08 00:17:17;;;;;;;8.07;2.45;;;-1.20;99.90;;;;;;5071711;28;20118;-46
2021/03/08 00:19:43;;;;;;;7.18;2.38;;;-1.20;99.90;;;;;;5071890;28;20078;-47
2021/03/08 00:22:09;;;;;;;5.38;2.58;;;-1.30;99.90;;;;;;5072340;28;20583;-48
2021/03/08 00:24:34;;;;;;;11.63;2.78;;;-1.30;99.90;;;;;;5053654;28;20548;-47
2021/03/08 00:27:00;;;;;;;6.55;1.92;;;-1.30;99.90;;;;;;5072183;28;20382;-50
2021/03/08 00:29:26;;;;;;;3.78;2.03;;;-1.30;99.90;;;;;;5071701;28;20028;-47
2021/03/08 00:31:51;;;;;;;6.82;1.80;;;-1.30;99.90;;;;;;5073254;28;20082;-48
2021/03/08 00:34:17;;;;;;;3.85;2.15;;;-1.30;99.90;;;;;;5053259;28;20024;-47
2021/03/08 00:36:42;;;;;;;5.53;2.20;;;-1.40;99.90;;;;;;5071266;28;20024;-47
2021/03/08 00:39:08;;;;;;;5.45;1.92;;;-1.40;99.90;;;;;;5071102;28;20021;-49
2021/03/08 00:41:34;;;;;;;4.50;1.67;;;-1.40;99.90;;;;;;5071181;28;20978;-47
2021/03/08 00:43:59;;;;;;;3.88;1.33;;;-1.40;99.90;;;;;;5071319;28;20028;-47
2021/03/08 00:46:25;;;;;;;4.18;1.33;;;-1.40;99.90;;;;;;5067981;28;20021;-50
2021/03/08 00:48:50;;;;;;;9.70;1.65;;;-1.40;99.90;;;;;;5069220;28;20086;-52
2021/03/08 00:51:16;;;;;;;4.20;1.63;;;-1.40;99.90;;;;;;5070034;28;20094;-48
2021/03/08 00:53:42;;;;;;;3.08;1.45;;;-1.50;99.90;;;;;;5069533;28;20021;-48
2021/03/08 00:56:07;;;;;;;6.35;2.08;;;-1.50;99.90;;;;;;5055266;28;20095;-48
2021/03/08 00:58:33;;;;;;;4.82;1.52;;;-1.50;99.90;;;;;;5070548;28;20028;-51
2021/03/08 01:00:58;;;;;;;6.80;1.50;;;-1.50;99.90;;;;;;5069152;28;20148;-46
2021/03/08 01:03:24;;;;;;;6.47;1.90;;;-1.60;99.90;;;;;;5069388;28;20029;-46
2021/03/08 01:05:49;;;;;;;3.40;1.40;;;-1.60;99.90;;;;;;5068741;28;20111;-51
2021/03/08 01:08:15;;;;;;;3.88;1.75;;;-1.70;99.90;;;;;;5070859;28;20055;-47
2021/03/08 01:10:40;;;;;;;2.97;1.27;;;-1.70;99.90;;;;;;5070992;28;20027;-47
2021/03/08 01:13:06;;;;;;;4.05;1.38;;;-1.80;99.90;;;;;;5069871;28;20017;-49
2021/03/08 01:15:31;;;;;;;2.33;1.50;;;-1.90;99.90;;;;;;5071058;28;20035;-48
2021/03/08 01:17:57;;;;;;;5.45;1.58;;;-1.90;99.90;;;;;;5070574;28;20437;-48
2021/03/08 01:20:23;;;;;;;2.60;1.48;;;-2.00;99.90;;;;;;5071108;28;20132;-49
2021/03/08 01:22:49;;;;;;;3.80;1.67;;;-2.00;99.90;;;;;;5070826;28;20086;-47
2021/03/08 01:25:20;;;;;;;3.92;1.52;;;-2.10;99.90;;;;;;5052795;28;20028;-47
2021/03/08 01:27:45;;;;;;;2.58;1.40;;;-2.10;99.90;;;;;;5070671;28;20515;-49
2021/03/08 01:30:14;;;;;;;4.18;1.92;;;-2.10;99.90;;;;;;5071141;28;20024;-47
2021/03/08 01:32:40;;;;;;;4.95;2.08;;;-2.20;99.90;;;;;;5070717;28;20024;-49
2021/03/08 01:35:06;;;;;;;4.20;2.30;;;-2.20;99.90;;;;;;5070305;28;20025;-47
2021/03/08 01:37:32;;;;;;;5.88;1.63;;;-2.30;99.90;;;;;;5052845;28;20028;-48
2021/03/08 01:39:59;;;;;;;4.32;1.65;;;-2.30;99.90;;;;;;5070436;28;20085;-47
2021/03/08 01:42:24;;;;;;;2.08;1.42;;;-2.30;99.90;;;;;;5070871;28;20542;-47
2021/03/08 01:44:50;;;;;;;5.20;1.80;;;-2.40;99.90;;;;;;5070429;28;20028;-53
2021/03/08 01:47:16;;;;;;;4.90;1.42;;;-2.40;99.90;;;;;;5070781;28;20491;-47
2021/03/08 01:49:41;;;;;;;3.33;1.70;;;-2.50;99.90;;;;;;5070509;28;20137;-48
2021/03/08 01:52:11;;;;;;;7.15;1.67;;;-2.50;99.90;;;;;;5069918;28;20095;-46
2021/03/08 01:54:38;;;;;;;3.33;1.75;;;-2.60;99.90;;;;;;5070236;28;20383;-47
2021/03/08 01:57:04;;;;;;;4.65;1.60;;;-2.60;99.90;;;;;;5070300;28;20486;-46
2021/03/08 01:59:29;;;;;;;3.22;1.88;;;-2.60;99.90;;;;;;5063717;28;20030;-52
2021/03/08 02:01:57;;;;;;;3.55;1.75;;;-2.70;99.90;;;;;;5065611;28;20406;-50
2021/03/08 02:04:23;;;;;;;7.18;1.95;;;-2.70;99.90;;;;;;5068053;28;20514;-50
2021/03/08 02:06:48;;;;;;;3.80;1.50;;;-2.70;99.90;;;;;;5070395;28;20091;-50
2021/03/08 02:09:15;;;;;;;5.30;2.03;;;-2.80;99.90;;;;;;5069969;28;20048;-48
2021/03/08 02:11:44;;;;;;;2.10;1.45;;;-2.80;99.90;;;;;;5070051;28;20028;-47
2021/03/08 02:14:52;;;;;;;4.68;1.65;;;-2.90;99.90;;;;;;5068840;28;20044;-47
2021/03/08 02:17:25;;;;;;;3.15;1.33;;;-2.90;99.90;;;;;;5014890;28;20541;-46
2021/03/08 02:20:18;;;;;;;3.47;1.70;;;-3.00;99.90;;;;;;5054721;28;20052;-48
2021/03/08 02:23:14;;;;;;;3.83;1.67;;;-3.00;99.90;;;;;;5067252;28;20021;-47
2021/03/08 02:26:17;;;;;;;5.68;1.80;;;-3.00;99.90;;;;;;5066154;28;20555;-46
2021/03/08 02:28:46;;;;;;;6.60;2.08;;;-3.00;99.90;;;;;;5048396;28;20655;-47
2021/03/08 02:31:17;;;;;;;5.88;2.20;;;-3.10;99.90;;;;;;5069110;28;20031;-48
2021/03/08 02:33:55;;;;;;;3.95;1.73;;;-3.10;99.90;;;;;;5069194;28;20451;-47
2021/03/08 02:36:25;;;;;;;4.32;1.55;;;-3.10;99.90;;;;;;5068821;28;20134;-52
2021/03/08 02:38:59;;;;;;;2.33;1.60;;;-3.10;99.90;;;;;;5069095;28;20090;-47
2021/03/08 02:41:27;;;;;;;2.05;1.20;;;-3.20;99.90;;;;;;5064681;28;20040;-50
2021/03/08 02:43:57;;;;;;;3.55;1.35;;;-3.20;99.90;;;;;;5069307;28;20442;-50
2021/03/08 02:46:29;;;;;;;8.80;1.70;;;-3.20;99.90;;;;;;5068664;28;20063;-51
2021/03/08 02:49:02;;;;;;;5.13;1.25;;;-3.30;99.90;;;;;;5069150;28;20078;-48
2021/03/08 02:51:30;;;;;;;3.70;1.48;;;-3.30;99.90;;;;;;5055466;28;20044;-48
2021/03/08 02:53:59;;;;;;;5.53;1.17;;;-3.30;99.90;;;;;;5062515;28;20017;-50
2021/03/08 02:56:30;;;;;;;6.20;1.30;;;-3.40;99.90;;;;;;5051104;28;20453;-50
2021/03/08 02:58:57;;;;;;;4.18;1.60;;;-3.40;99.90;;;;;;5068283;28;20027;-49
2021/03/08 03:01:25;;;;;;;6.80;1.95;;;-3.40;99.90;;;;;;5068919;28;20028;-52
2021/03/08 03:03:55;;;;;;;5.20;1.48;;;-3.40;99.90;;;;;;5068321;28;20067;-48
2021/03/08 03:06:26;;;;;;;5.32;1.55;;;-3.50;99.90;;;;;;5067336;28;20048;-49
2021/03/08 03:08:53;;;;;;;2.80;1.65;;;-3.50;99.90;;;;;;5066478;28;20020;-52
2021/03/08 03:11:20;;;;;;;1.27;1.00;;;-3.50;99.90;;;;;;5068466;28;20013;-49
2021/03/08 03:13:49;;;;;;;5.63;1.50;;;-3.60;99.90;;;;;;5068789;28;20055;-50
2021/03/08 03:16:15;;;;;;;4.13;1.40;;;-3.60;99.90;;;;;;5050482;28;20085;-46
2021/03/08 03:18:44;;;;;;;5.13;1.40;;;-3.60;99.90;;;;;;5068661;28;20025;-53
2021/03/08 03:21:11;;;;;;;3.40;1.13;;;-3.70;99.90;;;;;;5050775;28;20410;-49
2021/03/08 03:23:38;;;;;;;4.70;1.75;;;-3.70;99.90;;;;;;5067279;28;20425;-47
2021/03/08 03:26:06;;;;;;;5.88;1.38;;;-3.70;99.90;;;;;;5067766;28;20028;-51
2021/03/08 03:28:33;;;;;;;4.93;1.05;;;-3.70;99.90;;;;;;5049777;28;20848;-46
2021/03/08 03:30:59;;;;;;;5.18;1.48;;;-3.70;99.90;;;;;;5066381;28;20016;-53
2021/03/08 03:33:27;;;;;;;2.97;1.10;;;-3.80;99.90;;;;;;5068034;28;20021;-51
2021/03/08 03:35:53;;;;;;;2.83;1.25;;;-3.80;99.90;;;;;;5067708;28;20051;-51
2021/03/08 03:38:20;;;;;;;2.33;1.63;;;-3.80;99.90;;;;;;5067765;28;20109;-47
2021/03/08 03:40:48;;;;;;;3.75;1.30;;;-3.80;99.90;;;;;;5068098;28;20103;-46
2021/03/08 03:43:13;;;;;;;7.20;1.95;;;-3.90;99.90;;;;;;5068153;28;20032;-49
2021/03/08 03:45:39;;;;;;;7.22;1.88;;;-3.90;99.90;;;;;;5067931;28;20025;-46
2021/03/08 03:48:05;;;;;;;7.57;1.85;;;-3.90;99.90;;;;;;5068060;28;20499;-47
2021/03/08 03:50:31;;;;;;;3.30;1.40;;;-3.90;99.90;;;;;;5068289;28;20040;-48
2021/03/08 03:52:56;;;;;;;5.32;1.55;;;-3.90;99.90;;;;;;5068102;28;20024;-47
2021/03/08 03:55:24;;;;;;;3.28;1.38;;;-3.90;99.90;;;;;;5066921;28;20082;-48
2021/03/08 03:57:52;;;;;;;2.15;1.35;;;-3.90;99.90;;;;;;5067154;28;20021;-47
2021/03/08 04:00:23;;;;;;;1.90;1.23;;;-4.00;99.90;;;;;;5068055;28;20025;-46
2021/03/08 04:02:58;;;;;;;4.93;1.70;;;-4.00;99.90;;;;;;5068047;28;20460;-46
2021/03/08 04:05:25;;;;;;;3.15;1.40;;;-4.00;99.90;;;;;;5067929;28;20399;-47
2021/03/08 04:07:52;;;;;;;1.98;0.90;;;-4.00;99.90;;;;;;5068108;28;20025;-48
2021/03/08 04:10:19;;;;;;;3.70;1.73;;;-4.00;99.90;;;;;;5068315;28;20100;-48
2021/03/08 04:12:52;;;;;;;3.40;1.60;;;-4.00;99.90;;;;;;5068229;28;20020;-47
2021/03/08 04:15:19;;;;;;;3.83;1.40;;;-4.00;99.90;;;;;;5067283;28;20020;-46
2021/03/08 04:17:45;;;;;;;2.05;1.00;;;-4.10;99.90;;;;;;5068311;28;20394;-49
2021/03/08 04:20:17;;;;;;;3.47;1.33;;;-4.10;99.90;;;;;;5068234;28;20032;-47
2021/03/08 04:22:49;;;;;;;1.58;1.20;;;-4.10;99.90;;;;;;5068413;28;20498;-47
2021/03/08 04:25:17;;;;;;;3.15;1.35;;;-4.10;99.90;;;;;;5067737;28;20482;-48
2021/03/08 04:27:43;;;;;;;4.10;1.85;;;-4.20;99.90;;;;;;5068003;28;20044;-48
2021/03/08 04:30:09;;;;;;;6.53;1.70;;;-4.20;99.90;;;;;;5033352;28;20032;-46
2021/03/08 04:32:35;;;;;;;5.97;1.23;;;-4.20;99.90;;;;;;5050051;28;20024;-47
2021/03/08 04:35:01;;;;;;;3.25;1.25;;;-4.20;99.90;;;;;;5067701;28;20391;-52
2021/03/08 04:37:28;;;;;;;7.30;1.88;;;-4.30;99.90;;;;;;5067761;28;20021;-46
2021/03/08 04:39:54;;;;;;;2.50;1.33;;;-4.30;99.90;;;;;;5065621;28;20048;-46
2021/03/08 04:42:20;;;;;;;3.03;1.30;;;-4.20;99.90;;;;;;5066216;28;20487;-46
2021/03/08 04:44:47;;;;;;;4.38;1.13;;;-4.30;99.90;;;;;;5067637;28;20477;-45
2021/03/08 04:47:17;;;;;;;6.13;1.73;;;-4.30;99.90;;;;;;5066423;28;20025;-48
2021/03/08 04:49:43;;;;;;;2.97;1.35;;;-4.30;99.90;;;;;;5066613;28;20017;-47
2021/03/08 04:52:12;;;;;;;4.88;1.42;;;-4.30;99.90;;;;;;5071558;28;20104;-46
2021/03/08 04:54:41;;;;;;;2.30;1.00;;;-4.30;99.90;;;;;;5070824;28;20020;-49
2021/03/08 04:57:08;;;;;;;7.05;1.63;;;-4.30;99.90;;;;;;5053613;28;20554;-47
2021/03/08 04:59:33;;;;;;;5.45;1.55;;;-4.30;99.90;;;;;;5071182;28;20043;-46
2021/03/08 05:01:59;;;;;;;4.65;1.35;;;-4.30;99.90;;;;;;5063580;28;20471;-48
2021/03/08 05:04:25;;;;;;;3.10;1.52;;;-4.30;99.90;;;;;;5070851;28;20447;-50
2021/03/08 05:06:52;;;;;;;4.55;1.88;;;-4.30;99.90;;;;;;5071595;28;20082;-47
2021/03/08 05:09:19;;;;;;;3.63;2.28;;;-4.30;99.90;;;;;;5053170;28;20475;-46
2021/03/08 05:11:46;;;;;;;5.18;1.83;;;-4.30;99.90;;;;;;5071285;28;20037;-47
2021/03/08 05:14:16;;;;;;;4.03;1.70;;;-4.40;99.90;;;;;;5070029;28;20063;-48
2021/03/08 05:16:44;;;;;;;4.63;2.05;;;-4.40;99.90;;;;;;5071185;28;20024;-46
2021/03/08 05:19:11;;;;;;;4.35;1.88;;;-4.40;99.90;;;;;;5070665;28;20478;-46
2021/03/08 05:21:38;;;;;;;1.70;1.20;;;-4.40;99.90;;;;;;5070902;28;20712;-46
2021/03/08 05:24:05;;;;;;;3.67;1.35;;;-4.40;99.90;;;;;;5070862;28;20494;-48
2021/03/08 05:26:30;;;;;;;4.05;1.65;;;-4.40;99.90;;;;;;5070501;28;20047;-46
2021/03/08 05:28:57;;;;;;;3.88;1.73;;;-4.40;99.90;;;;;;5070454;28;20474;-46
2021/03/08 05:31:27;;;;;;;2.20;1.90;;;-4.50;99.90;;;;;;5070474;28;20047;-48
2021/03/08 05:33:58;;;;;;;4.15;1.70;;;-4.50;99.90;;;;;;5070704;28;20024;-48
2021/03/08 05:36:24;;;;;;;5.22;1.70;;;-4.50;99.90;;;;;;5070266;28;20031;-49
2021/03/08 05:38:51;;;;;;;4.55;2.10;;;-4.50;99.90;;;;;;5070534;28;20387;-47
2021/03/08 05:41:32;;;;;;;3.45;1.80;;;-4.50;99.90;;;;;;5052691;28;20032;-47
2021/03/08 05:44:03;;;;;;;4.93;1.95;;;-4.50;99.90;;;;;;5070385;28;20108;-46
2021/03/08 05:46:38;;;;;;;4.03;1.67;;;-4.60;99.90;;;;;;5070284;28;20021;-46
2021/03/08 05:49:34;;;;;;;4.88;1.77;;;-4.60;99.90;;;;;;5070084;28;20078;-46
2021/03/08 05:52:37;;;;;;;6.23;1.80;;;-4.60;99.90;;;;;;5073508;28;20028;-47
2021/03/08 05:55:26;;;;;;;5.85;1.75;;;-4.60;99.90;;;;;;5063648;28;20637;-47
2021/03/08 05:58:14;;;;;;;4.13;1.98;;;-4.70;99.90;;;;;;5073630;28;20031;-46
2021/03/08 06:01:13;;;;;;;3.97;2.08;;;-4.70;99.90;;;;;;5076095;28;20435;-49
2021/03/08 06:04:13;;;;;;;4.15;1.58;;;-4.70;99.90;;;;;;5083666;28;20115;-47
2021/03/08 06:06:57;;;;;;;4.70;2.28;;;-4.70;99.90;;;;;;5074423;28;20028;-47
2021/03/08 06:09:25;;;;;;;3.45;1.83;;;-4.80;99.90;;;;;;5051535;28;20024;-48
2021/03/08 06:12:05;;;;;;;7.32;2.28;;;-4.80;99.90;;;;;;5069475;28;20017;-47
2021/03/08 06:14:34;;;;;;;3.57;1.83;;;-4.70;99.90;;;;;;5068008;28;20055;-46
2021/03/08 06:17:01;;;;;;;4.05;1.90;;;-4.70;99.90;;;;;;5080823;28;20064;-49
2021/03/08 06:19:29;;;;;;;4.53;2.10;;;-4.70;99.90;;;;;;5071789;28;20032;-50
2021/03/08 06:21:54;;;;;;;4.28;2.13;;;-4.70;99.90;;;;;;5084965;28;20073;-47
2021/03/08 06:24:21;;;;;;;6.38;2.95;;;-4.60;99.90;;;;;;5085851;28;20024;-49
2021/03/08 06:26:49;;;;;;;3.37;1.93;;;-4.60;99.90;;;;;;5065806;28;20028;-49
2021/03/08 06:29:15;;;;;;;4.20;2.47;;;-4.60;99.90;;;;;;5077498;28;20021;-47
2021/03/08 06:31:43;;;;;;;5.38;2.50;;;-4.60;99.90;;;;;;5083296;28;20147;-51
2021/03/08 06:34:08;;;;;;;5.43;2.70;;;-4.60;99.90;;;;;;5084826;28;20031;-50
2021/03/08 06:36:36;;;;;;;6.72;3.08;;;-4.60;99.90;;;;;;5085132;28;20028;-51
2021/03/08 06:39:01;;;;;;;6.22;3.03;;;-4.50;99.90;;;;;;5081576;22;20081;-61
2021/03/08 06:41:27;;;;;;;6.03;3.00;;;-4.50;99.90;;;;;;5028650;28;20118;-61
2021/03/08 06:43:52;;;;;;;7.57;3.25;;;-4.50;99.90;;;;;;5025656;28;20034;-60
2021/03/08 06:46:18;;;;;;;5.53;3.13;;;-4.40;99.90;;;;;;5027295;28;20136;-61
2021/03/08 06:48:44;;;;;;;8.30;2.95;;;-4.40;99.90;;;;;;5033196;28;20105;-60
2021/03/08 06:51:19;;;;;;;4.18;2.90;;;-4.40;99.90;;;;;;5022828;28;20558;-60
2021/03/08 06:53:46;;;;;;;4.30;3.20;;;-4.30;99.90;;;;;;5029252;28;20025;-60
2021/03/08 06:56:11;;;;;;;4.47;3.22;;;-4.30;99.90;;;;;;5028336;28;20480;-59
2021/03/08 06:58:37;;;;;;;4.35;3.00;;;-4.30;99.90;;;;;;5018820;28;20028;-60
2021/03/08 07:01:03;;;;;;;5.95;3.55;;;-4.20;99.90;;;;;;5028293;28;20443;-60
2021/03/08 07:03:30;;;;;;;4.65;3.28;;;-4.20;99.90;;;;;;5014131;28;20029;-60
2021/03/08 07:06:14;;;;;;;4.35;3.22;;;-4.20;99.90;;;;;;5025429;28;20032;-60
2021/03/08 07:08:40;;;;;;;6.10;3.72;;;-4.20;99.90;;;;;;5025865;28;20104;-58
2021/03/08 07:11:22;;;;;;;6.15;3.55;;;-4.10;99.90;;;;;;5027711;28;20096;-60
2021/03/08 07:13:49;;;;;;;7.32;3.75;;;-4.00;99.90;;;;;;5026876;28;20561;-59
2021/03/08 07:16:16;;;;;;;8.52;3.47;;;-3.90;99.90;;;;;;5027802;28;20352;-60
2021/03/08 07:18:42;;;;;;;4.32;3.67;;;-3.90;99.90;;;;;;5027854;28;20495;-61
2021/03/08 07:21:20;;;;;;;4.38;3.25;;;-3.80;99.90;;;;;;5026369;28;20459;-61
2021/03/08 07:23:51;;;;;;;10.63;4.32;;;-3.80;99.90;;;;;;5032993;28;20036;-58
2021/03/08 07:26:22;;;;;;;4.43;3.55;;;-3.70;99.90;;;;;;5026610;28;20061;-61
2021/03/08 07:29:07;;;;;;;7.63;3.80;;;-3.60;99.90;;;;;;5030530;28;20372;-61
2021/03/08 07:31:38;;;;;;;7.22;4.00;;;-3.50;99.90;;;;;;5030652;28;20026;-61
2021/03/08 07:34:08;;;;;;;7.40;4.32;;;-3.40;99.90;;;;;;5028551;28;20075;-61
2021/03/08 07:36:38;;;;;;;7.55;4.13;;;-3.30;99.90;;;;;;5027574;28;20026;-61
2021/03/08 07:39:16;;;;;;;5.57;3.70;;;-3.20;99.90;;;;;;5027908;28;20022;-62
2021/03/08 07:41:54;;;;;;;6.90;4.00;;;-3.10;99.90;;;;;;5026723;28;20021;-61
2021/03/08 07:44:22;;;;;;;8.32;3.80;;;-3.00;99.90;;;;;;5028304;28;20045;-60
2021/03/08 07:46:47;;;;;;;3.90;3.28;;;-2.80;99.90;;;;;;5028559;28;20706;-61
2021/03/08 07:49:14;;;;;;;9.25;3.45;;;-2.70;99.90;;;;;;5011604;28;20022;-61
2021/03/08 07:52:06;;;;;;;6.30;3.47;;;-2.60;99.90;;;;;;5009080;28;20032;-62
2021/03/08 07:54:51;;;;;;;6.32;3.38;;;-2.50;99.90;;;;;;5006773;28;20041;-62
2021/03/08 07:57:17;;;;;;;5.47;3.05;;;-2.40;99.90;;;;;;5011294;28;20022;-63
2021/03/08 07:59:43;;;;;;;8.90;3.30;;;-2.30;99.90;;;;;;5014171;28;20025;-62
2021/03/08 08:02:09;;;;;;;5.88;2.83;;;-2.20;99.90;;;;;;5009937;28;20018;-62
2021/03/08 08:04:34;;;;;;;4.72;2.92;;;-2.20;99.90;;;;;;5010277;28;20448;-59
2021/03/08 08:07:05;;;;;;;5.68;3.03;;;-2.00;99.90;;;;;;5022469;28;20108;-63
2021/03/08 08:09:36;;;;;;;3.80;2.38;;;-1.90;99.90;;;;;;5020080;28;20022;-63
2021/03/08 08:12:05;;;;;;;5.55;3.13;;;-1.70;99.90;;;;;;5016312;28;20032;-62
2021/03/08 08:14:34;;;;;;;4.22;2.17;;;-1.50;99.90;;;;;;5027062;28;20389;-60
2021/03/08 08:17:03;;;;;;;2.45;2.03;;;-1.30;99.90;;;;;;5028110;28;20056;-62
2021/03/08 08:19:31;;;;;;;3.67;2.10;;;-1.20;99.90;;;;;;5027824;28;20026;-60
2021/03/08 08:21:58;;;;;;;2.97;2.10;;;-1.00;99.90;;;;;;5029181;28;20120;-63
2021/03/08 08:24:26;;;;;;;4.13;2.03;;;-0.70;99.90;;;;;;5031994;28;20041;-63
2021/03/08 08:26:54;;;;;;;3.92;1.80;;;-0.50;99.90;;;;;;5032002;28;20041;-60
2021/03/08 08:29:24;;;;;;;5.72;1.80;;;-0.30;99.90;;;;;;5025323;28;20097;-62
2021/03/08 08:32:04;;;;;;;3.80;1.75;;;0.00;99.90;;;;;;5018434;28;20018;-63
2021/03/08 08:34:45;;;;;;;4.80;1.67;;;0.30;99.90;;;;;;5030232;28;20030;-63
2021/03/08 08:37:21;;;;;;;3.45;1.80;;;0.50;99.90;;;;;;5030867;28;20018;-62
2021/03/08 08:39:52;;;;;;;3.92;2.00;;;0.70;99.90;;;;;;5030204;28;20117;-62
2021/03/08 08:42:20;;;;;;;3.42;1.65;;;1.00;99.90;;;;;;5030610;28;20025;-64
2021/03/08 08:44:47;;;;;;;3.63;1.77;;;1.10;99.90;;;;;;5029047;28;20022;-63
2021/03/08 08:47:22;;;;;;;3.50;1.27;;;1.40;99.90;;;;;;5030647;28;20025;-63
2021/03/08 08:49:54;;;;;;;1.98;1.23;;;1.60;99.90;;;;;;5030567;28;20021;-62
2021/03/08 08:52:43;;;;;;;4.20;1.25;;;1.80;99.90;;;;;;5031219;28;20527;-61
2021/03/08 08:55:09;;;;;;;3.45;1.50;;;2.00;99.90;;;;;;5030144;28;20040;-60
2021/03/08 08:57:35;;;;;;;3.75;1.73;;;2.20;99.90;;;;;;5031530;28;20029;-61
2021/03/08 09:00:33;;;;;;;4.93;1.70;;;2.40;99.90;;;;;;5031381;28;20121;-62
2021/03/08 09:03:01;;;;;;;2.10;1.10;;;2.50;99.90;;;;;;5008494;28;20041;-61
2021/03/08 09:05:29;;;;;;;2.58;1.52;;;2.60;99.90;;;;;;5031095;28;20430;-60
2021/03/08 09:08:28;;;;;;;4.53;1.38;;;2.70;99.90;;;;;;5031139;28;20018;-59
2021/03/08 09:10:55;;;;;;;2.45;1.10;;;2.90;99.90;;;;;;5031178;28;20132;-61
2021/03/08 09:13:23;;;;;;;4.05;1.73;;;3.00;99.90;;;;;;5031425;28;20110;-57
2021/03/08 09:15:48;;;;;;;4.55;1.17;;;3.00;99.90;;;;;;5031380;28;20021;-60
2021/03/08 09:18:14;;;;;;;3.38;0.95;;;3.20;99.90;;;;;;5031160;28;20471;-61
2021/03/08 09:20:42;;;;;;;4.10;1.38;;;3.30;99.90;;;;;;5031186;28;20492;-60
2021/03/08 09:23:22;;;;;;;1.63;0.93;;;3.40;99.90;;;;;;5030940;28;20075;-57
2021/03/08 09:25:59;;;;;;;1.23;0.88;;;3.50;99.90;;;;;;5030988;28;20021;-58
2021/03/08 09:28:25;;;;;;;1.88;0.75;;;3.60;99.90;;;;;;5030962;28;20025;-62
2021/03/08 09:30:50;;;;;;;1.95;0.98;;;3.80;99.90;;;;;;5031008;28;20561;-59
2021/03/08 09:33:20;;;;;;;4.30;1.35;;;3.80;99.90;;;;;;5030524;28;20026;-59
2021/03/08 09:35:55;;;;;;;3.10;1.08;;;3.80;99.90;;;;;;5030619;28;20025;-61
2021/03/08 09:38:22;;;;;;;1.63;0.75;;;3.90;99.90;;;;;;5030562;28;20025;-61
2021/03/08 09:40:50;;;;;;;3.75;1.55;;;4.10;99.90;;;;;;5030603;28;20029;-61
2021/03/08 09:43:33;;;;;;;2.78;1.27;;;4.10;99.90;;;;;;5031034;28;20037;-60
2021/03/08 09:46:07;;;;;;;3.40;1.50;;;4.10;99.00;;;;;;5030756;28;20108;-60
2021/03/08 09:48:37;;;;;;;3.55;1.48;;;4.20;99.30;;;;;;5030797;28;20476;-60
2021/03/08 09:51:12;;;;;;;2.25;1.13;;;4.30;99.90;;;;;;5030722;28;20105;-59
2021/03/08 09:53:44;;;;;;;3.67;1.13;;;4.40;96.90;;;;;;5030881;28;20437;-60
2021/03/08 09:56:21;;;;;;;3.95;0.88;;;4.30;96.30;;;;;;5030532;28;20029;-61
2021/03/08 09:58:57;;;;;;;3.83;1.00;;;4.40;93.30;;;;;;5030622;28;20109;-60
2021/03/08 10:01:23;;;;;;;;;;;4.40;83.80;;;;;;5031279;28;20021;-60
2021/03/08 10:03:49;;;;;;;1.48;1.20;;;4.50;90.50;;;;;;5030541;28;19916;-59
2021/03/08 10:06:25;;;;;;;2.40;0.82;;;4.60;90.40;;;;;;5030163;28;20030;-61
2021/03/08 10:08:51;;;;;;;1.40;0.60;;;4.90;88.80;;;;;;5030301;28;20026;-59
2021/03/08 10:11:20;;;;;;;1.40;0.80;;;5.00;90.60;;;;;;5030396;28;20267;-59
2021/03/08 10:13:46;;;;;;;2.35;0.88;;;5.20;86.10;;;;;;5029845;28;20112;-61
2021/03/08 10:16:20;;;;;;;3.38;0.93;;;5.30;85.60;;;;;;5029862;28;20108;-60
2021/03/08 10:18:45;;;;;;;2.05;0.88;;;5.40;86.90;;;;;;5030168;28;20064;-61
2021/03/08 10:21:11;;;;;;;1.70;0.52;;;5.50;83.80;;;;;;5030005;28;20049;-62
2021/03/08 10:23:36;;;;;;;1.10;0.50;;;5.50;62.70;;;;;;5030600;28;20026;-61
2021/03/08 10:26:11;;;;;;;1.73;0.55;;;5.50;68.60;;;;;;5029787;28;20025;-60
2021/03/08 10:28:49;;;;;;;1.70;0.68;;;5.60;66.70;;;;;;5029879;28;20023;-61
2021/03/08 10:31:26;;;;;;;1.10;0.40;;;5.60;65.30;;;;;;5028634;28;20022;-62
2021/03/08 10:33:58;;;;;;;0.77;0.60;;;5.70;64.50;;;;;;5029655;28;20120;-60
2021/03/08 10:36:28;;;;;;;2.15;0.73;;;5.70;67.20;;;;;;5029335;28;20397;-62
2021/03/08 10:38:56;;;;;;;0.82;0.82;;;5.90;70.30;;;;;;5027940;28;20029;-60
2021/03/08 10:41:25;;;;;;;8.63;3.30;;;5.90;67.70;;;;;;5029884;28;20021;-61
2021/03/08 10:43:53;;;;;;;2.60;1.38;;;6.00;67.10;;;;;;5025476;28;20680;-61
2021/03/08 10:46:19;;;;;;;0.80;0.47;;;6.10;68.10;;;;;;5025841;28;20036;-61
2021/03/08 10:49:00;;;;;;;2.05;0.60;;;6.10;67.20;;;;;;5031851;28;20029;-62
2021/03/08 10:51:26;;;;;;;0.70;0.45;;;6.20;63.70;;;;;;5022357;28;20025;-61
2021/03/08 10:53:56;;;;;;;0.93;0.47;;;6.00;55.20;;;;;;5027467;28;20507;-61
2021/03/08 10:56:23;;;;;;;1.95;0.85;;;5.90;57.00;;;;;;5028372;28;20022;-61
2021/03/08 10:58:48;;;;;;;2.08;0.70;;;5.90;59.10;;;;;;5026415;28;20111;-57
2021/03/08 11:01:14;;;;;;;2.28;0.80;;;5.90;58.60;;;;;;5029192;28;20128;-61
2021/03/08 11:03:41;;;;;;;0.70;0.40;;;5.80;60.90;;;;;;5028520;28;20139;-62
2021/03/08 11:06:14;;;;;;;1.75;0.85;;;5.90;60.30;;;;;;5029288;28;20017;-60
2021/03/08 11:08:41;;;;;;;1.40;0.63;;;6.00;62.90;;;;;;5031814;28;20546;-61
2021/03/08 11:11:15;;;;;;;1.10;0.43;;;6.00;59.70;;;;;;5030631;28;20013;-60
2021/03/08 11:13:40;;;;;;;0.93;0.28;;;6.00;57.10;;;;;;5030737;28;20163;-60
2021/03/08 11:16:10;;;;;;;1.75;0.60;;;5.90;58.10;;;;;;5028904;28;20026;-62
2021/03/08 11:18:36;;;;;;;1.90;0.50;;;5.80;57.70;;;;;;5032500;28;20031;-62
2021/03/08 11:21:30;;;;;;;0.82;0.55;;;5.60;58.30;;;;;;5027714;28;20097;-60
2021/03/08 11:24:20;;;;;;;1.40;0.52;;;5.80;64.80;;;;;;5038997;28;20535;-57
2021/03/08 11:27:15;;;;;;;1.73;0.80;;;6.00;58.50;;;;;;5024760;28;20034;-63
2021/03/08 11:29:54;;;;;;;1.75;0.60;;;6.00;58.40;;;;;;5028742;28;20783;-59
2021/03/08 11:32:23;;;;;;;2.33;0.88;;;6.00;58.80;;;;;;5023116;28;20017;-61
2021/03/08 11:34:51;;;;;;;0.93;0.47;;;6.00;56.30;;;;;;5026433;28;20022;-59
2021/03/08 11:37:18;;;;;;;1.55;0.52;;;6.10;59.30;;;;;;5026068;28;20021;-61
2021/03/08 11:39:46;;;;;;;0.65;0.65;;;6.10;56.00;;;;;;5028207;28;20032;-61
2021/03/08 11:42:14;;;;;;;0.60;0.60;;;6.00;51.80;;;;;;5029319;28;20423;-61
2021/03/08 11:44:40;;;;;;;1.60;0.70;;;6.00;56.30;;;;;;5028511;28;20515;-60
2021/03/08 11:47:06;;;;;;;1.63;0.63;;;6.10;56.00;;;;;;5028489;28;20050;-61
2021/03/08 11:49:32;;;;;;;0.43;0.40;;;6.20;54.80;;;;;;5030849;28;20033;-60
2021/03/08 11:51:58;;;;;;;1.02;0.63;;;6.20;51.30;;;;;;5028563;28;20017;-61
2021/03/08 11:54:24;;;;;;;1.98;0.88;;;6.20;51.40;;;;;;5027963;28;20499;-61
2021/03/08 11:56:51;;;;;;;3.13;0.80;;;6.20;53.70;;;;;;5027390;28;20021;-58
2021/03/08 11:59:17;;;;;;;2.42;0.52;;;6.20;53.30;;;;;;5029062;28;20037;-61
2021/03/08 12:01:42;;;;;;;1.45;0.82;;;6.20;49.50;;;;;;5027317;28;20520;-61
2021/03/08 12:04:08;;;;;;;2.05;1.00;;;6.10;51.70;;;;;;5025365;28;20099;-60
2021/03/08 12:06:33;;;;;;;1.63;0.93;;;6.10;54.80;;;;;;5025424;28;20518;-60
2021/03/08 12:08:59;;;;;;;0.93;0.85;;;6.10;55.60;;;;;;5034218;28;20075;-62
2021/03/08 12:11:25;;;;;;;3.13;1.23;;;6.10;54.30;;;;;;5025930;28;20021;-61
2021/03/08 12:13:50;;;;;;;2.30;1.23;;;6.20;54.30;;;;;;5028288;28;20026;-61
2021/03/08 12:16:16;;;;;;;1.75;1.45;;;6.20;52.60;;;;;;5030257;28;20053;-62
2021/03/08 12:18:42;;;;;;;2.13;1.73;;;6.20;49.90;;;;;;5033483;28;20487;-61
2021/03/08 12:21:07;;;;;;;4.90;2.03;;;6.30;51.30;;;;;;5040910;28;20025;-60
2021/03/08 12:23:33;;;;;;;2.63;1.65;;;6.30;54.80;;;;;;5033223;28;20033;-59
2021/03/08 12:25:59;;;;;;;3.05;2.13;;;6.30;53.20;;;;;;5031126;28;20025;-62
2021/03/08 12:28:24;;;;;;;4.25;1.95;;;6.30;51.90;;;;;;5029773;28;20021;-62
2021/03/08 12:30:51;;;;;;;2.63;1.88;;;6.20;52.40;;;;;;5028411;28;20577;-60
2021/03/08 12:33:16;;;;;;;4.38;1.60;;;6.20;52.00;;;;;;5037789;28;20776;-60
2021/03/08 12:35:42;;;;;;;4.47;2.60;;;6.30;54.80;;;;;;5035280;28;20599;-60
2021/03/08 12:38:07;;;;;;;3.60;2.25;;;6.30;55.50;;;;;;5030086;28;20028;-61
2021/03/08 12:40:33;;;;;;;7.45;2.30;;;6.30;56.40;;;;;;5031909;28;20033;-62
2021/03/08 12:42:58;;;;;;;3.72;2.45;;;6.40;53.30;;;;;;5029976;28;20100;-61
2021/03/08 12:45:24;;;;;;;5.18;2.35;;;6.30;53.10;;;;;;5037824;28;20052;-61
2021/03/08 12:47:50;;;;;;;2.88;2.13;;;6.30;55.50;;;;;;5030582;28;20014;-61
2021/03/08 12:50:16;;;;;;;4.40;2.28;;;6.30;52.90;;;;;;5029712;28;20029;-61
2021/03/08 12:52:42;;;;;;;3.65;1.80;;;6.30;54.70;;;;;;5029991;28;20152;-61
2021/03/08 12:55:08;;;;;;;2.60;1.73;;;6.30;56.70;;;;;;5035431;28;20069;-60
2021/03/08 12:57:33;;;;;;;2.75;1.58;;;6.30;52.00;;;;;;5040332;28;20029;-62
2021/03/08 13:00:00;;;;;;;3.08;2.03;;;6.20;51.30;;;;;;5034850;28;20036;-61
2021/03/08 13:02:25;;;;;;;1.25;1.10;;;6.20;53.80;;;;;;5027229;28;20026;-61